createdAt,value
2019-03-23T00:00:09.398Z,10.40
2019-03-23T00:02:37.167Z,11.13
2019-03-23T00:05:06.208Z,10.27
2019-03-23T00:07:34.037Z,10.07
2019-03-23T00:10:01.806Z,8.43
2019-03-23T00:12:29.663Z,10.97
2019-03-23T00:14:57.466Z,8.67
2019-03-23T00:17:25.231Z,9.47
2019-03-23T00:19:53.006Z,9.83
2019-03-23T00:22:20.715Z,9.53
2019-03-23T00:24:48.402Z,9.30
2019-03-23T00:27:16.169Z,10.20
2019-03-23T00:29:43.955Z,10.70
2019-03-23T00:32:11.798Z,9.33
2019-03-23T00:34:39.572Z,10.20
2019-03-23T00:37:07.360Z,9.33
2019-03-23T00:39:35.154Z,10.20
2019-03-23T00:42:03.033Z,9.03
2019-03-23T00:44:30.802Z,9.13
2019-03-23T00:46:58.582Z,8.87
2019-03-23T00:49:26.375Z,8.87
2019-03-23T00:51:54.091Z,12.13
2019-03-23T00:54:21.743Z,8.67
2019-03-23T00:56:49.549Z,9.03
2019-03-23T00:59:17.256Z,8.07
2019-03-23T01:01:45.043Z,8.17
2019-03-23T01:04:12.830Z,9.60
2019-03-23T01:06:40.509Z,9.80
2019-03-23T01:09:08.250Z,10.60
2019-03-23T01:11:36.056Z,8.40
2019-03-23T01:14:04.125Z,7.97
2019-03-23T01:16:31.872Z,9.37
2019-03-23T01:18:59.644Z,9.10
2019-03-23T01:21:27.468Z,7.90
2019-03-23T01:23:55.300Z,7.00
2019-03-23T01:26:22.993Z,9.37
2019-03-23T01:28:50.671Z,8.83
2019-03-23T01:31:18.489Z,9.03
2019-03-23T01:33:46.235Z,7.80
2019-03-23T01:36:14.054Z,9.03
2019-03-23T01:38:41.841Z,11.67
2019-03-23T01:41:09.612Z,7.53
2019-03-23T01:43:37.417Z,9.70
2019-03-23T01:46:05.270Z,8.37
2019-03-23T01:48:33.011Z,9.33
2019-03-23T01:51:00.802Z,7.67
2019-03-23T01:53:28.570Z,8.70
2019-03-23T01:55:56.512Z,6.43
2019-03-23T01:58:24.323Z,11.03
2019-03-23T02:00:52.118Z,8.43
2019-03-23T02:03:19.792Z,7.10
2019-03-23T02:05:47.525Z,7.17
2019-03-23T02:08:15.337Z,7.97
2019-03-23T02:10:43.148Z,6.63
2019-03-23T02:13:10.941Z,8.27
2019-03-23T02:15:38.693Z,8.40
2019-03-23T02:18:06.467Z,8.37
2019-03-23T02:20:34.352Z,6.93
2019-03-23T02:23:02.209Z,7.37
2019-03-23T02:25:29.893Z,10.17
2019-03-23T02:27:57.686Z,6.60
2019-03-23T02:30:25.479Z,6.20
2019-03-23T02:32:53.246Z,7.73
2019-03-23T02:35:20.981Z,9.50
2019-03-23T02:37:48.666Z,6.67
2019-03-23T02:40:16.462Z,5.67
2019-03-23T02:42:44.388Z,7.13
2019-03-23T02:45:12.364Z,6.40
2019-03-23T02:47:40.167Z,8.97
2019-03-23T02:50:08.355Z,6.43
2019-03-23T02:52:36.235Z,7.10
2019-03-23T02:55:04.450Z,5.73
2019-03-23T02:57:32.384Z,7.33
2019-03-23T03:00:00.069Z,5.53
2019-03-23T03:02:28.021Z,6.40
2019-03-23T03:04:55.813Z,4.90
2019-03-23T03:07:23.583Z,5.97
2019-03-23T03:09:51.493Z,8.77
2019-03-23T03:12:19.143Z,6.37
2019-03-23T03:14:48.025Z,8.23
2019-03-23T03:17:15.785Z,5.63
2019-03-23T03:19:43.674Z,6.27
2019-03-23T03:22:11.436Z,7.33
2019-03-23T03:24:39.218Z,5.33
2019-03-23T03:27:06.969Z,6.40
2019-03-23T03:29:34.875Z,5.73
2019-03-23T03:32:02.572Z,4.87
2019-03-23T03:34:30.274Z,5.13
2019-03-23T03:36:58.131Z,6.33
2019-03-23T03:39:25.930Z,6.23
2019-03-23T03:41:53.703Z,5.20
2019-03-23T03:44:21.499Z,5.27
2019-03-23T03:46:49.333Z,7.23
2019-03-23T03:49:17.234Z,5.87
2019-03-23T03:51:45.013Z,7.87
2019-03-23T03:54:12.678Z,5.63
2019-03-23T03:56:40.370Z,5.47
2019-03-23T03:59:08.120Z,6.20
2019-03-23T04:01:35.942Z,5.07
2019-03-23T04:04:03.633Z,6.37
2019-03-23T04:06:31.308Z,6.33
2019-03-23T04:08:59.129Z,6.30
2019-03-23T04:11:26.995Z,7.20
2019-03-23T04:13:54.685Z,6.33
2019-03-23T04:16:22.487Z,5.17
2019-03-23T04:18:50.280Z,6.30
2019-03-23T04:21:18.168Z,5.97
2019-03-23T04:23:45.985Z,5.67
2019-03-23T04:26:13.887Z,5.50
2019-03-23T04:28:41.648Z,5.63
2019-03-23T04:31:09.475Z,6.20
2019-03-23T04:33:37.142Z,6.53
2019-03-23T04:36:05.087Z,4.90
2019-03-23T04:38:34.098Z,6.67
2019-03-23T04:41:01.901Z,6.03
2019-03-23T04:43:29.712Z,5.83
2019-03-23T04:45:57.524Z,5.43
2019-03-23T04:48:25.379Z,6.00
2019-03-23T04:50:53.292Z,5.57
2019-03-23T04:53:21.053Z,5.10
2019-03-23T04:55:49.014Z,6.97
2019-03-23T04:58:16.706Z,5.73
2019-03-23T05:00:44.380Z,6.70
2019-03-23T05:03:12.194Z,6.00
2019-03-23T05:05:39.961Z,6.70
2019-03-23T05:08:07.778Z,5.97
2019-03-23T05:10:35.458Z,8.00
2019-03-23T05:13:03.203Z,6.27
2019-03-23T05:15:31.003Z,5.40
2019-03-23T05:17:58.667Z,7.47
2019-03-23T05:20:30.825Z,6.33
2019-03-23T05:22:59.079Z,6.30
2019-03-23T05:25:27.483Z,6.83
2019-03-23T05:27:55.802Z,6.50
2019-03-23T05:30:23.556Z,7.67
2019-03-23T05:32:51.365Z,6.30
2019-03-23T05:35:19.176Z,7.27
2019-03-23T05:37:46.963Z,7.13
2019-03-23T05:40:14.742Z,7.17
2019-03-23T05:42:42.493Z,6.70
2019-03-23T05:45:10.282Z,7.23
2019-03-23T05:47:38.022Z,5.87
2019-03-23T05:50:05.732Z,6.13
2019-03-23T05:52:33.505Z,4.70
2019-03-23T05:55:01.183Z,7.37
2019-03-23T05:57:28.978Z,7.17
2019-03-23T05:59:56.680Z,7.47
2019-03-23T06:02:24.452Z,7.53
2019-03-23T06:04:52.192Z,5.90
2019-03-23T06:07:20.183Z,8.70
2019-03-23T06:09:47.885Z,6.83
2019-03-23T06:12:17.623Z,6.27
2019-03-23T06:14:45.400Z,6.83
2019-03-23T06:17:13.047Z,6.63
2019-03-23T06:19:40.737Z,7.10
2019-03-23T06:22:08.389Z,7.20
2019-03-23T06:24:36.198Z,6.20
2019-03-23T06:27:04.454Z,7.77
2019-03-23T06:29:32.103Z,7.50
2019-03-23T06:31:59.918Z,7.50
2019-03-23T06:34:27.696Z,7.63
2019-03-23T06:36:55.471Z,8.77
2019-03-23T06:39:23.394Z,7.87
2019-03-23T06:41:51.181Z,6.40
2019-03-23T06:44:18.983Z,7.73
2019-03-23T06:46:46.784Z,7.87
2019-03-23T06:49:14.534Z,6.97
2019-03-23T06:51:42.214Z,6.90
2019-03-23T06:54:09.981Z,7.63
2019-03-23T06:56:37.789Z,8.63
2019-03-23T06:59:05.607Z,7.27
2019-03-23T07:01:33.369Z,7.30
2019-03-23T07:04:01.059Z,7.42
2019-03-23T07:06:28.825Z,7.45
2019-03-23T07:08:56.523Z,6.03
2019-03-23T07:11:24.314Z,5.90
2019-03-23T07:13:52.078Z,6.25
2019-03-23T07:16:20.456Z,5.15
2019-03-23T07:18:48.154Z,5.08
2019-03-23T07:21:15.907Z,4.83
2019-03-23T07:23:43.565Z,3.50
2019-03-23T07:26:11.286Z,3.40
2019-03-23T07:28:38.923Z,3.62
2019-03-23T07:31:06.788Z,4.78
2019-03-23T07:33:34.567Z,3.60
2019-03-23T07:36:02.378Z,4.47
2019-03-23T07:38:30.050Z,3.75
2019-03-23T07:40:57.881Z,3.12
2019-03-23T07:43:25.657Z,3.40
2019-03-23T07:45:53.329Z,3.90
2019-03-23T07:48:21.073Z,3.25
2019-03-23T07:50:48.920Z,3.33
2019-03-23T07:53:16.858Z,3.20
2019-03-23T07:55:44.848Z,3.42
2019-03-23T07:58:12.696Z,3.40
2019-03-23T08:00:41.100Z,3.58
2019-03-23T08:03:08.971Z,3.42
2019-03-23T08:05:36.680Z,3.58
2019-03-23T08:08:04.499Z,5.72
2019-03-23T08:10:32.529Z,4.65
2019-03-23T08:13:00.663Z,3.87
2019-03-23T08:15:28.442Z,3.40
2019-03-23T08:17:56.243Z,3.60
2019-03-23T08:20:23.999Z,3.50
2019-03-23T08:22:52.059Z,4.37
2019-03-23T08:25:19.851Z,3.17
2019-03-23T08:27:47.513Z,3.10
2019-03-23T08:30:15.357Z,3.58
2019-03-23T08:32:43.011Z,5.62
2019-03-23T08:35:10.713Z,4.37
2019-03-23T08:37:38.406Z,4.72
2019-03-23T08:40:06.353Z,4.45
2019-03-23T08:42:35.045Z,4.20
2019-03-23T08:45:03.433Z,5.60
2019-03-23T08:47:31.121Z,5.17
2019-03-23T08:49:59.691Z,5.25
2019-03-23T08:52:29.003Z,4.83
2019-03-23T08:54:56.936Z,4.95
2019-03-23T08:57:24.593Z,5.17
2019-03-23T08:59:52.415Z,4.90
2019-03-23T09:02:21.861Z,5.78
2019-03-23T09:04:49.817Z,5.42
2019-03-23T09:07:17.500Z,6.80
2019-03-23T09:09:45.315Z,5.35
2019-03-23T09:12:13.132Z,5.65
2019-03-23T09:14:41.127Z,6.30
2019-03-23T09:17:08.816Z,5.47
2019-03-23T09:19:36.567Z,5.92
2019-03-23T09:22:04.418Z,6.15
2019-03-23T09:24:32.093Z,5.72
2019-03-23T09:27:00.006Z,6.10
2019-03-23T09:29:27.735Z,6.45
2019-03-23T09:31:55.434Z,6.67
2019-03-23T09:34:24.180Z,6.00
2019-03-23T09:36:51.865Z,6.25
2019-03-23T09:39:19.690Z,6.40
2019-03-23T09:41:47.558Z,6.17
2019-03-23T09:44:15.275Z,7.17
2019-03-23T09:46:43.065Z,7.10
2019-03-23T09:49:10.908Z,6.35
2019-03-23T09:51:38.771Z,6.92
2019-03-23T09:54:06.444Z,7.42
2019-03-23T09:56:34.126Z,6.85
2019-03-23T09:59:01.962Z,7.62
2019-03-23T10:01:29.811Z,7.10
2019-03-23T10:03:57.831Z,7.05
2019-03-23T10:06:25.718Z,7.83
2019-03-23T10:08:53.587Z,7.17
2019-03-23T10:11:21.390Z,6.95
2019-03-23T10:13:49.165Z,7.87
2019-03-23T10:16:17.100Z,8.00
2019-03-23T10:18:44.944Z,7.20
2019-03-23T10:21:12.610Z,7.65
2019-03-23T10:23:40.416Z,7.62
2019-03-23T10:26:08.086Z,7.37
2019-03-23T10:28:35.855Z,7.42
2019-03-23T10:31:03.674Z,7.62
2019-03-23T10:33:31.462Z,7.30
2019-03-23T10:35:59.178Z,7.87
2019-03-23T10:38:26.940Z,8.48
2019-03-23T10:40:57.820Z,8.30
2019-03-23T10:43:25.500Z,7.85
2019-03-23T10:45:53.162Z,7.70
2019-03-23T10:48:20.963Z,7.62
2019-03-23T10:50:48.657Z,8.43
2019-03-23T10:53:22.983Z,8.70
2019-03-23T10:55:45.857Z,8.43
2019-03-23T10:58:13.539Z,8.43
2019-03-23T11:00:41.250Z,8.35
2019-03-23T11:03:08.909Z,7.83
2019-03-23T11:05:36.687Z,8.03
2019-03-23T11:08:04.472Z,7.95
2019-03-23T11:10:41.444Z,7.92
2019-03-23T11:13:01.934Z,8.03
2019-03-23T11:15:29.714Z,7.92
2019-03-23T11:17:57.535Z,8.90
2019-03-23T11:20:25.186Z,8.45
2019-03-23T11:22:52.855Z,8.53
2019-03-23T11:25:20.632Z,8.68
2019-03-23T11:27:48.582Z,8.78
2019-03-23T11:30:16.262Z,7.70
2019-03-23T11:32:43.982Z,7.87
2019-03-23T11:35:11.766Z,8.10
2019-03-23T11:37:39.884Z,7.78
2019-03-23T11:40:08.190Z,8.33
2019-03-23T11:42:36.026Z,8.40
2019-03-23T11:45:04.385Z,8.38
2019-03-23T11:47:32.071Z,8.05
2019-03-23T11:49:59.747Z,8.00
2019-03-23T11:52:27.475Z,7.72
2019-03-23T11:54:55.247Z,8.45
2019-03-23T11:57:22.938Z,8.18
2019-03-23T11:59:50.781Z,8.00
2019-03-23T12:02:18.592Z,7.55
2019-03-23T12:04:46.324Z,7.42
2019-03-23T12:07:14.123Z,7.65
2019-03-23T12:09:41.815Z,7.25
2019-03-23T12:12:09.717Z,8.70
2019-03-23T12:14:37.618Z,7.53
2019-03-23T12:17:05.467Z,8.43
2019-03-23T12:19:33.231Z,9.45
2019-03-23T12:22:01.035Z,7.17
2019-03-23T12:24:28.847Z,7.03
2019-03-23T12:26:56.594Z,7.40
2019-03-23T12:29:24.403Z,7.92
2019-03-23T12:31:52.121Z,7.58
2019-03-23T12:34:19.953Z,7.65
2019-03-23T12:36:47.876Z,8.58
2019-03-23T12:39:15.695Z,10.15
2019-03-23T12:41:43.354Z,8.90
2019-03-23T12:44:11.155Z,8.63
2019-03-23T12:46:47.898Z,8.48
2019-03-23T12:49:08.400Z,9.28
2019-03-23T12:51:36.301Z,9.68
2019-03-23T12:54:04.075Z,11.20
2019-03-23T12:56:31.930Z,13.13
2019-03-23T12:58:59.753Z,12.00
2019-03-23T13:01:30.920Z,12.43
2019-03-23T13:03:59.105Z,12.10
2019-03-23T13:06:26.923Z,12.20
2019-03-23T13:08:55.208Z,12.80
2019-03-23T13:11:24.658Z,13.38
2019-03-23T13:13:52.609Z,12.43
2019-03-23T13:16:20.278Z,15.18
2019-03-23T13:18:48.090Z,13.18
2019-03-23T13:21:15.839Z,13.62
2019-03-23T13:23:43.643Z,14.93
2019-03-23T13:26:11.293Z,13.08
2019-03-23T13:28:38.980Z,14.25
2019-03-23T13:31:06.772Z,14.63
2019-03-23T13:33:34.496Z,14.43
2019-03-23T13:36:02.248Z,15.38
2019-03-23T13:38:29.926Z,15.83
2019-03-23T13:40:57.632Z,16.23
2019-03-23T13:43:25.527Z,16.82
2019-03-23T13:45:53.354Z,16.35
2019-03-23T13:48:21.028Z,18.05
2019-03-23T13:50:51.958Z,17.82
2019-03-23T13:53:19.699Z,18.10
2019-03-23T13:55:47.464Z,18.92
2019-03-23T13:58:15.178Z,19.92
2019-03-23T14:00:43.055Z,20.10
2019-03-23T14:03:11.149Z,19.40
2019-03-23T14:05:38.907Z,17.02
2019-03-23T14:08:06.583Z,18.07
2019-03-23T14:10:34.370Z,17.35
2019-03-23T14:13:02.118Z,18.67
2019-03-23T14:15:29.919Z,19.07
2019-03-23T14:17:57.581Z,16.60
2019-03-23T14:20:25.394Z,17.57
2019-03-23T14:23:02.297Z,19.52
2019-03-23T14:25:22.870Z,17.40
2019-03-23T14:27:50.697Z,18.42
2019-03-23T14:30:18.476Z,19.05
2019-03-23T14:32:46.312Z,20.20
2019-03-23T14:35:14.013Z,19.12
2019-03-23T14:37:42.088Z,17.27
2019-03-23T14:40:14.081Z,17.73
2019-03-23T14:42:41.912Z,19.52
2019-03-23T14:45:09.685Z,21.20
2019-03-23T14:47:37.387Z,19.65
2019-03-23T14:50:05.746Z,22.10
2019-03-23T14:52:33.424Z,22.13
2019-03-23T14:55:01.264Z,22.55
2019-03-23T14:57:28.934Z,22.10
2019-03-23T14:59:56.741Z,22.67
2019-03-23T15:02:24.499Z,24.10
2019-03-23T15:04:52.315Z,22.67
2019-03-23T15:07:19.966Z,20.97
2019-03-23T15:09:47.864Z,21.93
2019-03-23T15:12:15.675Z,22.60
2019-03-23T15:14:43.473Z,24.12
2019-03-23T15:17:11.405Z,28.00
2019-03-23T15:19:39.219Z,23.65
2019-03-23T15:22:07.157Z,26.37
2019-03-23T15:24:34.931Z,25.00
2019-03-23T15:27:02.830Z,23.75
2019-03-23T15:29:30.600Z,25.80
2019-03-23T15:31:58.446Z,27.73
2019-03-23T15:34:26.331Z,25.75
2019-03-23T15:36:54.120Z,26.85
2019-03-23T15:39:21.864Z,23.07
2019-03-23T15:41:49.655Z,27.73
2019-03-23T15:44:17.614Z,28.87
2019-03-23T15:46:45.323Z,24.72
2019-03-23T15:49:13.139Z,25.52
2019-03-23T15:51:40.768Z,26.70
2019-03-23T15:54:08.632Z,27.05
2019-03-23T15:56:36.444Z,28.27
2019-03-23T15:59:04.135Z,27.32
2019-03-23T16:01:31.899Z,27.40
2019-03-23T16:03:59.744Z,27.02
2019-03-23T16:06:27.609Z,28.57
2019-03-23T16:08:55.329Z,27.73
2019-03-23T16:11:23.107Z,29.63
2019-03-23T16:13:50.794Z,29.52
2019-03-23T16:16:18.668Z,25.57
2019-03-23T16:18:46.328Z,29.67
2019-03-23T16:21:14.236Z,28.52
2019-03-23T16:23:42.063Z,32.93
2019-03-23T16:26:09.782Z,31.15
2019-03-23T16:28:37.462Z,26.93
2019-03-23T16:31:05.318Z,30.10
2019-03-23T16:33:33.214Z,28.12
2019-03-23T16:36:01.063Z,28.20
2019-03-23T16:38:30.543Z,31.30
2019-03-23T16:40:58.385Z,25.52
2019-03-23T16:43:26.218Z,29.65
2019-03-23T16:45:54.076Z,28.35
2019-03-23T16:48:21.854Z,29.65
2019-03-23T16:50:49.600Z,29.92
2019-03-23T16:53:17.326Z,28.38
2019-03-23T16:55:45.096Z,29.72
2019-03-23T16:58:16.399Z,32.83
2019-03-23T17:00:42.893Z,32.50
2019-03-23T17:03:10.754Z,33.73
2019-03-23T17:05:38.673Z,34.40
2019-03-23T17:08:06.478Z,34.55
2019-03-23T17:10:34.672Z,35.00
2019-03-23T17:13:02.516Z,31.23
2019-03-23T17:15:30.212Z,31.95
2019-03-23T17:17:58.299Z,31.93
2019-03-23T17:20:26.129Z,31.68
2019-03-23T17:22:54.135Z,32.45
2019-03-23T17:25:22.091Z,31.57
2019-03-23T17:27:50.050Z,32.88
2019-03-23T17:30:17.756Z,33.20
2019-03-23T17:32:45.527Z,32.48
2019-03-23T17:35:13.325Z,31.12
2019-03-23T17:37:41.223Z,29.45
2019-03-23T17:40:09.186Z,30.55
2019-03-23T17:42:36.983Z,34.33
2019-03-23T17:45:05.256Z,32.03
2019-03-23T17:47:33.216Z,32.05
2019-03-23T17:50:01.112Z,29.02
2019-03-23T17:52:28.913Z,34.23
2019-03-23T17:54:56.727Z,31.80
2019-03-23T17:57:24.403Z,30.75
2019-03-23T17:59:52.288Z,31.30
2019-03-23T18:02:20.079Z,40.35
2019-03-23T18:04:47.891Z,35.03
2019-03-23T18:07:15.741Z,30.75
2019-03-23T18:09:43.516Z,34.17
2019-03-23T18:12:11.190Z,34.10
2019-03-23T18:14:38.894Z,33.60
2019-03-23T18:17:06.668Z,33.73
2019-03-23T18:19:34.397Z,34.97
2019-03-23T18:22:02.160Z,32.43
2019-03-23T18:24:29.957Z,32.83
2019-03-23T18:26:57.832Z,31.63
2019-03-23T18:29:25.636Z,32.93
2019-03-23T18:31:53.501Z,36.40
2019-03-23T18:34:21.183Z,35.00
2019-03-23T18:36:49.713Z,37.77
2019-03-23T18:39:17.425Z,42.90
2019-03-23T18:41:45.235Z,37.53
2019-03-23T18:46:27.071Z,36.43
2019-03-23T18:48:54.857Z,34.67
2019-03-23T18:51:22.613Z,35.50
2019-03-23T18:53:50.413Z,33.97
2019-03-23T18:56:18.145Z,35.87
2019-03-23T18:58:45.928Z,28.87
2019-03-23T19:01:13.762Z,30.90
2019-03-23T19:03:41.513Z,31.20
2019-03-23T19:06:09.289Z,29.90
2019-03-23T19:08:37.053Z,29.23
2019-03-23T19:11:04.803Z,31.57
2019-03-23T19:13:37.805Z,31.50
2019-03-23T19:16:02.322Z,31.50
2019-03-23T19:18:30.098Z,28.00
2019-03-23T19:20:57.900Z,28.17
2019-03-23T19:23:25.734Z,29.83
2019-03-23T19:25:53.545Z,27.73
2019-03-23T19:28:21.378Z,30.60
2019-03-23T19:30:49.157Z,30.37
2019-03-23T19:33:16.969Z,29.47
2019-03-23T19:35:44.734Z,30.87
2019-03-23T19:38:12.442Z,30.43
2019-03-23T19:40:40.320Z,33.37
2019-03-23T19:43:08.150Z,26.90
2019-03-23T19:45:35.940Z,29.97
2019-03-23T19:48:04.074Z,32.37
2019-03-23T19:50:31.939Z,28.70
2019-03-23T19:52:59.764Z,31.07
2019-03-23T19:55:27.588Z,31.87
2019-03-23T19:57:55.953Z,31.53
2019-03-23T20:00:23.730Z,32.80
2019-03-23T20:02:51.428Z,33.33
2019-03-23T20:05:19.217Z,34.60
2019-03-23T20:07:47.018Z,34.67
2019-03-23T20:10:15.167Z,33.90
2019-03-23T20:12:42.967Z,31.73
2019-03-23T20:15:11.880Z,31.10
2019-03-23T20:17:39.868Z,32.30
2019-03-23T20:20:08.058Z,29.60
2019-03-23T20:22:36.662Z,31.80
2019-03-23T20:25:05.047Z,30.40
2019-03-23T20:27:32.814Z,26.20
2019-03-23T20:30:00.712Z,28.93
2019-03-23T20:32:28.592Z,30.60
2019-03-23T20:34:56.429Z,29.20
2019-03-23T20:37:24.280Z,28.80
2019-03-23T20:39:52.238Z,35.33
2019-03-23T20:42:19.898Z,30.03
2019-03-23T20:44:47.734Z,27.33
2019-03-23T20:47:15.548Z,26.50
2019-03-23T20:49:43.755Z,26.23
2019-03-23T20:52:11.582Z,25.53
2019-03-23T20:54:39.383Z,26.47
2019-03-23T20:57:07.166Z,28.57
2019-03-23T20:59:34.872Z,24.37
2019-03-23T21:02:02.797Z,21.43
2019-03-23T21:04:30.677Z,24.27
2019-03-23T21:06:58.544Z,26.33
2019-03-23T21:09:26.438Z,23.97
2019-03-23T21:11:54.296Z,22.50
2019-03-23T21:14:22.191Z,23.90
2019-03-23T21:16:50.053Z,25.67
2019-03-23T21:19:17.871Z,24.40
2019-03-23T21:21:45.754Z,23.07
2019-03-23T21:24:13.600Z,25.30
2019-03-23T21:26:41.375Z,22.20
2019-03-23T21:29:09.038Z,25.53
2019-03-23T21:31:36.852Z,24.40
2019-03-23T21:34:04.565Z,22.00
2019-03-23T21:36:32.399Z,22.23
2019-03-23T21:39:00.277Z,22.87
2019-03-23T21:41:28.084Z,22.53
2019-03-23T21:43:55.747Z,21.37
2019-03-23T21:46:23.462Z,25.63
2019-03-23T21:48:51.238Z,36.53
2019-03-23T21:51:19.019Z,34.80
2019-03-23T21:53:46.694Z,29.67
2019-03-23T21:56:14.599Z,29.10
2019-03-23T21:58:42.371Z,26.90
2019-03-23T22:01:10.140Z,26.57
2019-03-23T22:03:37.840Z,27.93
2019-03-23T22:06:05.623Z,23.20
2019-03-23T22:08:33.402Z,22.87
2019-03-23T22:11:01.303Z,21.57
2019-03-23T22:13:28.951Z,24.50
2019-03-23T22:15:56.740Z,22.00
2019-03-23T22:18:24.518Z,22.37
2019-03-23T22:20:52.189Z,23.07
2019-03-23T22:23:19.985Z,19.17
2019-03-23T22:25:47.830Z,20.67
2019-03-23T22:28:15.647Z,19.70
2019-03-23T22:30:43.434Z,20.20
2019-03-23T22:33:11.246Z,23.77
2019-03-23T22:35:39.067Z,19.47
2019-03-23T22:38:06.868Z,19.70
2019-03-23T22:40:34.631Z,21.17
2019-03-23T22:43:02.431Z,20.00
2019-03-23T22:45:30.242Z,18.63
2019-03-23T22:47:58.028Z,21.57
2019-03-23T22:50:25.685Z,19.50
2019-03-23T22:52:53.530Z,19.37
2019-03-23T22:55:21.213Z,22.00
2019-03-23T22:57:48.997Z,18.13
2019-03-23T23:00:21.207Z,19.13
2019-03-23T23:02:48.994Z,20.00
2019-03-23T23:05:16.740Z,21.77
2019-03-23T23:07:44.598Z,20.10
2019-03-23T23:10:12.272Z,19.87
2019-03-23T23:12:40.059Z,17.37
2019-03-23T23:15:08.178Z,19.57
2019-03-23T23:17:35.888Z,20.40
2019-03-23T23:20:04.281Z,18.73
2019-03-23T23:22:32.086Z,21.83
2019-03-23T23:24:59.964Z,19.27
2019-03-23T23:27:27.744Z,18.73
2019-03-23T23:29:55.526Z,19.40
2019-03-23T23:32:23.196Z,20.17
2019-03-23T23:34:50.920Z,20.83
2019-03-23T23:37:18.684Z,19.90
2019-03-23T23:39:46.470Z,22.07
2019-03-23T23:42:15.890Z,18.57
2019-03-23T23:44:44.702Z,22.70
2019-03-23T23:47:12.474Z,19.00
2019-03-23T23:49:40.119Z,19.37
2019-03-23T23:52:07.830Z,19.43
2019-03-23T23:54:35.513Z,19.07
2019-03-23T23:57:03.269Z,20.93
2019-03-23T23:59:31.062Z,20.03
